Terminal Aerodrome Forecast
Issued by NWS

Home | Current Version | Previous Version | Text Only | Print | Product List | Glossary On
Versions: 1 2 3 4 5 6 7 8 9 10 11 12 13 14 15 16 17 18 19 20 21 22 23 24
721
FTUS41 KAKQ 180521
TAFPHF
TAF
KPHF 180521Z 1806/1906 23008KT P6SM VCSH BKN060
     FM180830 23008KT P6SM VCSH OVC030
     FM181100 25009KT P6SM OVC020
     FM181300 27010KT P6SM BKN070
     FM181700 31012G19KT P6SM BKN080
     FM190100 34008KT P6SM SKC=

USA.gov is the U.S. government's official web portal to all federal, state and local government web resources and services.